createdAt,value
2022-11-29T00:01:44.206Z,93356.63
2022-11-29T00:04:47.041Z,93363.91
2022-11-29T00:07:50.098Z,93364.88
2022-11-29T00:10:53.194Z,93361.00
2022-11-29T00:13:56.121Z,93355.59
2022-11-29T00:17:04.993Z,93357.66
2022-11-29T00:20:09.896Z,93357.22
2022-11-29T00:23:12.946Z,93359.75
2022-11-29T00:26:16.035Z,93360.72
2022-11-29T00:29:19.495Z,93355.09
2022-11-29T00:32:22.322Z,93349.75
2022-11-29T00:35:25.379Z,93353.69
2022-11-29T00:38:28.947Z,93346.06
2022-11-29T00:41:32.005Z,93351.09
2022-11-29T00:44:34.978Z,93347.97
2022-11-29T00:47:38.037Z,93347.34
2022-11-29T00:50:41.154Z,93346.72
2022-11-29T00:53:44.127Z,93354.25
2022-11-29T00:56:47.172Z,93348.03
2022-11-29T00:59:50.264Z,93352.19
2022-11-29T01:02:53.233Z,93346.19
2022-11-29T01:06:02.878Z,93348.78
2022-11-29T01:09:06.473Z,93357.09
2022-11-29T01:12:09.224Z,93362.63
2022-11-29T01:15:12.519Z,93359.09
2022-11-29T01:18:16.195Z,93356.94
2022-11-29T01:21:22.055Z,93355.88
2022-11-29T01:24:25.025Z,93354.13
2022-11-29T01:27:28.072Z,93344.91
2022-11-29T01:30:31.115Z,93347.28
2022-11-29T01:33:34.741Z,93349.16
2022-11-29T01:36:37.891Z,93352.81
2022-11-29T01:39:40.980Z,93344.91
2022-11-29T01:42:43.934Z,93342.19
2022-11-29T01:45:46.924Z,93337.88
2022-11-29T01:48:51.136Z,93338.97
2022-11-29T01:51:55.639Z,93329.22
2022-11-29T01:55:02.420Z,93334.22
2022-11-29T01:58:08.620Z,93331.94
2022-11-29T02:01:12.124Z,93335.13
2022-11-29T02:04:16.233Z,93332.63
2022-11-29T02:07:19.567Z,93338.97
2022-11-29T02:10:33.529Z,93335.13
2022-11-29T02:13:54.842Z,93345.34
2022-11-29T02:17:28.754Z,93337.88
2022-11-29T02:20:48.810Z,93331.06
2022-11-29T02:24:11.218Z,93330.16
2022-11-29T02:27:36.653Z,93326.53
2022-11-29T02:31:20.203Z,93319.69
2022-11-29T02:34:50.882Z,93326.50
2022-11-29T02:38:15.387Z,93323.06
2022-11-29T02:41:39.830Z,93322.59
2022-11-29T02:44:45.792Z,93318.28
2022-11-29T02:47:58.154Z,93316.19
2022-11-29T02:51:26.641Z,93319.34
2022-11-29T02:54:43.461Z,93316.13
2022-11-29T02:57:59.229Z,93313.84
2022-11-29T03:01:14.191Z,93309.19
2022-11-29T03:04:28.840Z,93301.75
2022-11-29T03:07:57.547Z,93294.56
2022-11-29T03:11:28.977Z,93289.44
2022-11-29T03:15:03.325Z,93280.72
2022-11-29T03:18:24.802Z,93279.41
2022-11-29T03:21:49.416Z,93271.78
2022-11-29T03:24:57.222Z,93270.34
2022-11-29T03:28:14.189Z,93262.91
2022-11-29T03:31:36.683Z,93263.84
2022-11-29T03:34:57.778Z,93255.72
2022-11-29T03:38:21.731Z,93263.44
2022-11-29T03:41:32.767Z,93261.00
2022-11-29T03:44:47.877Z,93258.78
2022-11-29T03:48:35.309Z,93246.94
2022-11-29T03:51:55.619Z,93255.41
2022-11-29T03:55:12.835Z,93248.31
2022-11-29T03:58:29.625Z,93245.63
2022-11-29T04:01:44.602Z,93239.88
2022-11-29T04:05:21.048Z,93223.88
2022-11-29T04:08:44.603Z,93214.72
2022-11-29T04:11:56.082Z,93221.69
2022-11-29T04:15:31.268Z,93216.06
2022-11-29T04:18:59.601Z,93229.47
2022-11-29T04:22:33.210Z,93220.56
2022-11-29T04:25:59.988Z,93217.41
2022-11-29T04:29:17.942Z,93210.56
2022-11-29T04:32:40.253Z,93211.63
2022-11-29T04:35:52.269Z,93197.13
2022-11-29T04:39:13.900Z,93189.59
2022-11-29T04:42:50.798Z,93179.34
2022-11-29T04:46:14.965Z,93184.66
2022-11-29T04:49:33.009Z,93172.28
2022-11-29T04:53:12.616Z,93182.66
2022-11-29T04:56:36.823Z,93179.34
2022-11-29T04:59:49.956Z,93172.38
2022-11-29T05:03:05.323Z,93169.78
2022-11-29T05:06:20.267Z,93166.19
2022-11-29T05:09:33.277Z,93156.91
2022-11-29T05:13:12.722Z,93157.09
2022-11-29T05:16:46.553Z,93152.75
2022-11-29T05:20:08.051Z,93155.16
2022-11-29T05:23:39.196Z,93148.00
2022-11-29T05:26:45.155Z,93146.31
2022-11-29T05:30:00.027Z,93147.78
2022-11-29T05:33:18.065Z,93143.63
2022-11-29T05:36:45.577Z,93143.44
2022-11-29T05:40:21.790Z,93144.78
2022-11-29T05:43:49.070Z,93146.03
2022-11-29T05:46:56.510Z,93135.63
2022-11-29T05:50:08.211Z,93138.06
2022-11-29T05:53:29.838Z,93134.09
2022-11-29T05:56:54.155Z,93143.75
2022-11-29T05:59:59.889Z,93133.69
2022-11-29T06:03:13.249Z,93138.53
2022-11-29T06:06:36.545Z,93126.72
2022-11-29T06:09:50.479Z,93133.38
2022-11-29T06:13:19.301Z,93137.81
2022-11-29T06:16:28.980Z,93132.56
2022-11-29T06:19:32.117Z,93124.88
2022-11-29T06:22:54.314Z,93127.53
2022-11-29T06:26:24.757Z,93135.97
2022-11-29T06:29:43.220Z,93132.41
2022-11-29T06:33:01.815Z,93135.69
2022-11-29T06:36:24.077Z,93129.53
2022-11-29T06:39:27.438Z,93120.34
2022-11-29T06:42:30.536Z,93123.63
2022-11-29T06:45:33.890Z,93128.28
2022-11-29T06:48:45.690Z,93119.84
2022-11-29T06:52:22.137Z,93124.91
2022-11-29T06:55:50.374Z,93136.09
2022-11-29T06:58:56.590Z,93132.41
2022-11-29T07:02:19.782Z,93147.09
2022-11-29T07:05:26.246Z,93131.00
2022-11-29T07:08:29.706Z,93140.44
2022-11-29T07:11:33.247Z,93142.06
2022-11-29T07:14:36.937Z,93138.75
2022-11-29T07:17:44.208Z,93138.94
2022-11-29T07:21:00.426Z,93137.78
2022-11-29T07:24:21.919Z,93137.41
2022-11-29T07:27:39.258Z,93142.47
2022-11-29T07:31:03.061Z,93135.84
2022-11-29T07:34:39.733Z,93142.75
2022-11-29T07:38:04.140Z,93140.50
2022-11-29T07:41:09.964Z,93138.00
2022-11-29T07:44:27.283Z,93137.78
2022-11-29T07:47:35.351Z,93131.41
2022-11-29T07:50:39.611Z,93143.34
2022-11-29T07:53:45.059Z,93144.22
2022-11-29T07:56:48.320Z,93149.94
2022-11-29T07:59:51.292Z,93142.66
2022-11-29T08:02:55.591Z,93147.94
2022-11-29T08:05:58.699Z,93156.81
2022-11-29T08:09:02.439Z,93154.09
2022-11-29T08:12:05.745Z,93160.06
2022-11-29T08:15:09.636Z,93153.22
2022-11-29T08:18:12.621Z,93156.94
2022-11-29T08:21:18.898Z,93161.94
2022-11-29T08:24:21.962Z,93162.63
2022-11-29T08:27:25.046Z,93160.19
2022-11-29T08:30:28.051Z,93170.41
2022-11-29T08:33:31.598Z,93162.75
2022-11-29T08:36:34.682Z,93165.97
2022-11-29T08:39:37.755Z,93168.75
2022-11-29T08:42:41.189Z,93172.41
2022-11-29T08:45:44.386Z,93162.44
2022-11-29T08:48:48.847Z,93165.88
2022-11-29T08:52:14.985Z,93160.66
2022-11-29T08:55:20.680Z,93170.00
2022-11-29T08:58:23.870Z,93169.28
2022-11-29T09:01:26.966Z,93174.28
2022-11-29T09:04:30.011Z,93178.41
2022-11-29T09:07:33.498Z,93179.31
2022-11-29T09:10:36.561Z,93176.50
2022-11-29T09:13:44.456Z,93186.72
2022-11-29T09:16:47.706Z,93183.97
2022-11-29T09:19:50.739Z,93173.50
2022-11-29T09:22:53.793Z,93178.72
2022-11-29T09:25:57.036Z,93169.13
2022-11-29T09:29:04.282Z,93176.81
2022-11-29T09:32:07.700Z,93174.53
2022-11-29T09:35:10.868Z,93176.63
2022-11-29T09:38:15.100Z,93174.38
2022-11-29T09:41:36.639Z,93173.03
2022-11-29T09:45:08.622Z,93171.41
2022-11-29T09:48:58.256Z,93165.31
2022-11-29T09:52:13.842Z,93164.63
2022-11-29T09:55:56.407Z,93166.03
2022-11-29T09:59:13.542Z,93160.13
2022-11-29T10:02:21.698Z,93162.44
2022-11-29T10:05:30.818Z,93161.53
2022-11-29T10:08:42.753Z,93150.81
2022-11-29T10:11:57.757Z,93153.53
2022-11-29T10:15:11.317Z,93148.09
2022-11-29T10:18:23.947Z,93152.59
2022-11-29T10:21:32.989Z,93153.03
2022-11-29T10:24:39.155Z,93154.59
2022-11-29T10:27:42.453Z,93152.38
2022-11-29T10:30:46.089Z,93153.03
2022-11-29T10:33:50.950Z,93151.63
2022-11-29T10:37:00.242Z,93148.66
2022-11-29T10:40:08.679Z,93157.06
2022-11-29T10:43:13.102Z,93156.09
2022-11-29T10:46:31.751Z,93149.94
2022-11-29T10:49:37.015Z,93151.09
2022-11-29T10:52:40.091Z,93147.44
2022-11-29T10:56:04.655Z,93146.22
2022-11-29T10:59:09.989Z,93143.03
2022-11-29T11:02:24.907Z,93143.03
2022-11-29T11:05:28.431Z,93140.28
2022-11-29T11:08:32.596Z,93136.13
2022-11-29T11:11:35.776Z,93145.69
2022-11-29T11:14:40.207Z,93154.09
2022-11-29T11:18:05.390Z,93144.50
2022-11-29T11:21:13.735Z,93153.38
2022-11-29T11:24:45.051Z,93145.78
2022-11-29T11:27:48.834Z,93159.06
2022-11-29T11:31:09.095Z,93161.03
2022-11-29T11:34:34.834Z,93164.00
2022-11-29T11:37:37.917Z,93151.47
2022-11-29T11:40:41.102Z,93150.75
2022-11-29T11:43:52.810Z,93156.56
2022-11-29T11:46:56.152Z,93151.97
2022-11-29T11:50:05.240Z,93152.16
2022-11-29T11:53:20.987Z,93147.44
2022-11-29T11:56:25.088Z,93137.88
2022-11-29T11:59:28.979Z,93148.38
2022-11-29T12:02:40.972Z,93146.28
2022-11-29T12:05:46.339Z,93141.72
2022-11-29T12:08:50.329Z,93152.72
2022-11-29T12:12:02.585Z,93159.28
2022-11-29T12:15:44.599Z,93156.84
2022-11-29T12:18:51.835Z,93151.41
2022-11-29T12:22:03.548Z,93154.19
2022-11-29T12:25:14.391Z,93161.03
2022-11-29T12:28:20.977Z,93152.78
2022-11-29T12:31:37.055Z,93161.72
2022-11-29T12:35:25.026Z,93162.00
2022-11-29T12:39:09.268Z,93154.66
2022-11-29T12:42:57.991Z,93157.03
2022-11-29T12:46:15.268Z,93160.28
2022-11-29T12:49:18.289Z,93155.34
2022-11-29T12:52:26.448Z,93149.63
2022-11-29T12:55:57.660Z,93145.34
2022-11-29T12:59:42.755Z,93151.25
2022-11-29T13:03:10.232Z,93152.88
2022-11-29T13:06:30.450Z,93159.09
2022-11-29T13:10:03.501Z,93157.50
2022-11-29T13:13:25.932Z,93143.13
2022-11-29T13:16:58.188Z,93160.25
2022-11-29T13:20:18.745Z,93155.00
2022-11-29T13:23:39.055Z,93152.97
2022-11-29T13:26:47.969Z,93139.56
2022-11-29T13:29:51.690Z,93146.63
2022-11-29T13:33:15.845Z,93145.66
2022-11-29T13:36:45.643Z,93150.41
2022-11-29T13:40:04.217Z,93156.75
2022-11-29T13:43:21.364Z,93150.16
2022-11-29T13:46:35.716Z,93149.97
2022-11-29T13:50:00.537Z,93159.09
2022-11-29T13:53:12.380Z,93148.38
2022-11-29T13:56:48.404Z,93150.22
2022-11-29T13:59:51.614Z,93154.81
2022-11-29T14:02:56.291Z,93159.63
2022-11-29T14:06:10.530Z,93157.56
2022-11-29T14:09:19.313Z,93152.38
2022-11-29T14:12:51.407Z,93141.00
2022-11-29T14:16:01.844Z,93154.69
2022-11-29T14:19:10.941Z,93156.78
2022-11-29T14:22:14.064Z,93157.31
2022-11-29T14:25:50.512Z,93158.66
2022-11-29T14:28:48.591Z,93164.81
2022-11-29T14:31:53.836Z,93171.66
2022-11-29T14:35:14.447Z,93169.59
2022-11-29T14:38:48.276Z,93163.19
2022-11-29T14:42:02.342Z,93166.81
2022-11-29T14:45:22.419Z,93175.69
2022-11-29T14:48:32.555Z,93181.56
2022-11-29T14:51:35.799Z,93171.81
2022-11-29T14:54:54.737Z,93163.19
2022-11-29T14:58:06.720Z,93159.97
2022-11-29T15:01:10.938Z,93151.09
2022-11-29T15:04:14.651Z,93154.06
2022-11-29T15:07:24.670Z,93154.75
2022-11-29T15:10:32.091Z,93147.50
2022-11-29T15:13:37.773Z,93160.44
2022-11-29T15:16:55.964Z,93158.66
2022-11-29T15:20:06.704Z,93156.16
2022-11-29T15:23:16.691Z,93166.44
2022-11-29T15:26:21.745Z,93162.63
2022-11-29T15:29:26.482Z,93165.59
2022-11-29T15:32:33.224Z,93162.84
2022-11-29T15:35:38.634Z,93161.53
2022-11-29T15:38:50.571Z,93157.00
2022-11-29T15:41:53.631Z,93164.75
2022-11-29T15:44:56.599Z,93174.28
2022-11-29T15:48:23.301Z,93167.25
2022-11-29T15:51:38.412Z,93169.50
2022-11-29T15:54:48.949Z,93162.91
2022-11-29T15:57:57.227Z,93167.72
2022-11-29T16:01:02.498Z,93163.84
2022-11-29T16:04:06.027Z,93159.81
2022-11-29T16:07:09.401Z,93156.13
2022-11-29T16:10:19.304Z,93158.22
2022-11-29T16:13:40.586Z,93158.88
2022-11-29T16:16:46.910Z,93150.00
2022-11-29T16:19:49.914Z,93157.56
2022-11-29T16:23:12.452Z,93160.81
2022-11-29T16:26:23.459Z,93167.22
2022-11-29T16:29:38.820Z,93155.66
2022-11-29T16:32:54.593Z,93152.50
2022-11-29T16:36:12.760Z,93161.38
2022-11-29T16:39:25.010Z,93166.88
2022-11-29T16:42:34.064Z,93159.66
2022-11-29T16:45:38.659Z,93162.19
2022-11-29T16:48:42.893Z,93161.31
2022-11-29T16:51:49.038Z,93163.59
2022-11-29T16:54:52.225Z,93170.41
2022-11-29T16:57:55.317Z,93164.72
2022-11-29T17:00:58.338Z,93156.16
2022-11-29T17:04:01.457Z,93167.31
2022-11-29T17:07:08.045Z,93176.47
2022-11-29T17:10:16.495Z,93168.28
2022-11-29T17:13:19.735Z,93165.75
2022-11-29T17:16:24.353Z,93173.47
2022-11-29T17:19:29.736Z,93168.47
2022-11-29T17:22:32.914Z,93174.59
2022-11-29T17:25:36.055Z,93172.75
2022-11-29T17:28:41.642Z,93173.88
2022-11-29T17:31:47.427Z,93184.09
2022-11-29T17:34:50.584Z,93180.94
2022-11-29T17:37:53.549Z,93167.09
2022-11-29T17:40:56.581Z,93181.41
2022-11-29T17:44:00.209Z,93177.31
2022-11-29T17:47:04.461Z,93170.75
2022-11-29T17:50:08.023Z,93172.56
2022-11-29T17:53:11.094Z,93168.97
2022-11-29T17:56:17.411Z,93170.53
2022-11-29T17:59:20.940Z,93177.59
2022-11-29T18:02:23.946Z,93187.16
2022-11-29T18:05:34.203Z,93183.06
2022-11-29T18:08:49.667Z,93190.09
2022-11-29T18:11:53.059Z,93193.00
2022-11-29T18:14:56.084Z,93185.75
2022-11-29T18:17:59.044Z,93187.31
2022-11-29T18:21:03.378Z,93183.88
2022-11-29T18:24:07.266Z,93189.31
2022-11-29T18:27:10.213Z,93188.47
2022-11-29T18:30:13.352Z,93188.22
2022-11-29T18:33:16.358Z,93198.47
2022-11-29T18:36:25.004Z,93199.63
2022-11-29T18:39:28.123Z,93202.38
2022-11-29T18:42:31.123Z,93201.22
2022-11-29T18:45:37.875Z,93205.13
2022-11-29T18:48:41.895Z,93215.16
2022-11-29T18:51:46.488Z,93211.28
2022-11-29T18:54:49.551Z,93221.06
2022-11-29T18:57:56.153Z,93218.31
2022-11-29T19:01:05.992Z,93215.63
2022-11-29T19:04:21.126Z,93212.69
2022-11-29T19:07:24.206Z,93215.19
2022-11-29T19:10:27.288Z,93217.69
2022-11-29T19:13:30.305Z,93216.31
2022-11-29T19:16:35.079Z,93212.69
2022-11-29T19:19:38.073Z,93212.69
2022-11-29T19:22:41.086Z,93222.94
2022-11-29T19:25:44.177Z,93239.72
2022-11-29T19:28:49.327Z,93230.66
2022-11-29T19:31:52.559Z,93237.94
2022-11-29T19:34:58.403Z,93232.00
2022-11-29T19:38:01.436Z,93233.63
2022-11-29T19:41:15.151Z,93233.16
2022-11-29T19:44:18.316Z,93235.88
2022-11-29T19:47:21.302Z,93246.31
2022-11-29T19:50:24.323Z,93253.59
2022-11-29T19:53:28.600Z,93250.44
2022-11-29T19:56:32.926Z,93245.41
2022-11-29T19:59:35.925Z,93242.91
2022-11-29T20:02:39.045Z,93228.41
2022-11-29T20:05:43.393Z,93228.63
2022-11-29T20:08:46.454Z,93239.50
2022-11-29T20:11:49.384Z,93230.16
2022-11-29T20:14:52.389Z,93245.13
2022-11-29T20:17:56.974Z,93250.63
2022-11-29T20:21:14.043Z,93257.84
2022-11-29T20:24:18.255Z,93248.97
2022-11-29T20:27:24.488Z,93250.78
2022-11-29T20:30:27.542Z,93248.50
2022-11-29T20:33:30.579Z,93239.88
2022-11-29T20:36:56.593Z,93236.91
2022-11-29T20:40:09.978Z,93243.91
2022-11-29T20:43:20.975Z,93247.31
2022-11-29T20:46:26.358Z,93244.34
2022-11-29T20:49:31.981Z,93245.94
2022-11-29T20:52:48.466Z,93242.50
2022-11-29T20:55:51.463Z,93245.00
2022-11-29T20:58:54.394Z,93255.25
2022-11-29T21:01:58.063Z,93247.50
2022-11-29T21:05:00.876Z,93252.50
2022-11-29T21:08:03.924Z,93248.84
2022-11-29T21:11:10.409Z,93255.88
2022-11-29T21:14:13.709Z,93252.69
2022-11-29T21:17:18.129Z,93256.78
2022-11-29T21:20:27.046Z,93253.63
2022-11-29T21:23:57.698Z,93245.66
2022-11-29T21:27:01.125Z,93245.22
2022-11-29T21:30:06.506Z,93245.66
2022-11-29T21:33:10.267Z,93251.09
2022-11-29T21:36:14.470Z,93251.34
2022-11-29T21:39:17.510Z,93240.91
2022-11-29T21:42:21.670Z,93243.41
2022-11-29T21:45:24.801Z,93242.72
2022-11-29T21:48:36.529Z,93252.91
2022-11-29T21:51:39.644Z,93249.03
2022-11-29T21:54:42.712Z,93246.09
2022-11-29T21:57:45.677Z,93249.06
2022-11-29T22:00:48.625Z,93252.69
2022-11-29T22:03:54.529Z,93260.84
2022-11-29T22:06:57.521Z,93259.69
2022-11-29T22:10:10.152Z,93256.75
2022-11-29T22:13:16.073Z,93254.00
2022-11-29T22:16:19.521Z,93262.34
2022-11-29T22:19:23.840Z,93268.72
2022-11-29T22:22:28.296Z,93263.28
2022-11-29T22:25:31.390Z,93260.78
2022-11-29T22:28:35.464Z,93259.38
2022-11-29T22:31:38.495Z,93255.53
2022-11-29T22:34:41.690Z,93256.00
2022-11-29T22:37:44.790Z,93258.91
2022-11-29T22:40:47.755Z,93252.56
2022-11-29T22:43:52.937Z,93257.09
2022-11-29T22:46:55.963Z,93262.81
2022-11-29T22:49:59.064Z,93272.97
2022-11-29T22:53:02.101Z,93278.63
2022-11-29T22:56:07.265Z,93282.47
2022-11-29T22:59:10.582Z,93282.25
2022-11-29T23:02:13.655Z,93277.03
2022-11-29T23:05:16.690Z,93280.19
2022-11-29T23:08:19.699Z,93291.28
2022-11-29T23:11:25.808Z,93292.44
2022-11-29T23:14:28.935Z,93282.44
2022-11-29T23:17:31.879Z,93292.66
2022-11-29T23:20:34.951Z,93300.81
2022-11-29T23:23:38.814Z,93298.09
2022-11-29T23:26:45.538Z,93294.06
2022-11-29T23:29:48.848Z,93300.59
2022-11-29T23:32:51.932Z,93297.16
2022-11-29T23:36:09.536Z,93304.63
2022-11-29T23:39:12.502Z,93318.00
2022-11-29T23:42:15.596Z,93310.25
2022-11-29T23:45:18.884Z,93290.72
2022-11-29T23:48:21.868Z,93295.44
2022-11-29T23:51:24.890Z,93304.50
2022-11-29T23:54:27.950Z,93311.38
2022-11-29T23:57:31.598Z,93314.03
